Mogoca, Russia
Current Conditions -  °F | °C
As of 2:00 PM on Sunday 26 Oct 2014 (Local Time) from UIAA Reporting Station
Broken Clouds Broken Clouds  
Wind Chill: 25°   Ceiling: 20000
Heat Index: 25°   Visibility: 6mi
Dew Point: -4°   Wind: 2mph
Humidity: 28%   Direction: NA
Pressure: 30.48"   Gusts: NA
Location:  53.75°N, 119.73°E
Report Text: UIAA 260500Z VRB01MPS 9999 BKN200 M04/M20 Q1032 NOSIG RMKQFE715 29CLRD70
Loading
Personal Weather Stations






























Interactive Weather Map
Tropical Storm Tracking
New forecast layout! Learn more

10-Day Weather Forecast

Advertisements
Track Severe Weather on mobile